sensor_id;sensor_type;location;lat;lon;timestamp;P1;durP1;ratioP1;P2;durP2;ratioP2
7659;SDS011;3872;47.902;8.162;2023-08-30T00:00:50;6.80;;;2.80;;
7659;SDS011;3872;47.902;8.162;2023-08-30T00:03:18;5.33;;;3.20;;
7659;SDS011;3872;47.902;8.162;2023-08-30T00:05:44;8.03;;;3.43;;
7659;SDS011;3872;47.902;8.162;2023-08-30T00:08:11;4.87;;;3.40;;
7659;SDS011;3872;47.902;8.162;2023-08-30T00:10:38;5.40;;;3.33;;
7659;SDS011;3872;47.902;8.162;2023-08-30T00:13:09;5.60;;;3.30;;
7659;SDS011;3872;47.902;8.162;2023-08-30T00:15:35;5.17;;;3.40;;
7659;SDS011;3872;47.902;8.162;2023-08-30T00:18:02;10.90;;;4.40;;
7659;SDS011;3872;47.902;8.162;2023-08-30T00:20:29;5.97;;;3.27;;
7659;SDS011;3872;47.902;8.162;2023-08-30T00:22:56;7.00;;;3.90;;
7659;SDS011;3872;47.902;8.162;2023-08-30T00:25:22;9.10;;;3.70;;
7659;SDS011;3872;47.902;8.162;2023-08-30T00:27:49;7.80;;;3.77;;
7659;SDS011;3872;47.902;8.162;2023-08-30T00:30:16;6.20;;;3.40;;
7659;SDS011;3872;47.902;8.162;2023-08-30T00:32:43;6.53;;;3.13;;
7659;SDS011;3872;47.902;8.162;2023-08-30T00:35:10;6.10;;;3.40;;
7659;SDS011;3872;47.902;8.162;2023-08-30T00:37:36;5.30;;;3.00;;
7659;SDS011;3872;47.902;8.162;2023-08-30T00:40:03;5.23;;;2.83;;
7659;SDS011;3872;47.902;8.162;2023-08-30T00:42:31;4.97;;;2.83;;
7659;SDS011;3872;47.902;8.162;2023-08-30T00:44:58;4.90;;;3.20;;
7659;SDS011;3872;47.902;8.162;2023-08-30T00:47:25;5.13;;;2.70;;
7659;SDS011;3872;47.902;8.162;2023-08-30T00:49:51;5.23;;;2.77;;
7659;SDS011;3872;47.902;8.162;2023-08-30T00:52:18;5.60;;;2.57;;
7659;SDS011;3872;47.902;8.162;2023-08-30T00:54:45;4.47;;;2.30;;
7659;SDS011;3872;47.902;8.162;2023-08-30T00:57:12;6.20;;;3.10;;
7659;SDS011;3872;47.902;8.162;2023-08-30T00:59:39;5.77;;;2.87;;
7659;SDS011;3872;47.902;8.162;2023-08-30T01:02:05;5.67;;;3.20;;
7659;SDS011;3872;47.902;8.162;2023-08-30T01:04:34;4.60;;;2.50;;
7659;SDS011;3872;47.902;8.162;2023-08-30T01:07:00;7.40;;;2.60;;
7659;SDS011;3872;47.902;8.162;2023-08-30T01:09:27;4.50;;;2.50;;
7659;SDS011;3872;47.902;8.162;2023-08-30T01:11:55;4.80;;;2.80;;
7659;SDS011;3872;47.902;8.162;2023-08-30T01:14:29;5.40;;;3.07;;
7659;SDS011;3872;47.902;8.162;2023-08-30T01:17:01;10.43;;;2.50;;
7659;SDS011;3872;47.902;8.162;2023-08-30T01:19:33;4.60;;;2.50;;
7659;SDS011;3872;47.902;8.162;2023-08-30T01:22:11;5.03;;;2.83;;
7659;SDS011;3872;47.902;8.162;2023-08-30T01:24:44;5.50;;;2.47;;
7659;SDS011;3872;47.902;8.162;2023-08-30T01:27:16;4.97;;;2.50;;
7659;SDS011;3872;47.902;8.162;2023-08-30T01:29:44;5.47;;;2.70;;
7659;SDS011;3872;47.902;8.162;2023-08-30T01:32:12;5.37;;;3.03;;
7659;SDS011;3872;47.902;8.162;2023-08-30T01:34:40;5.37;;;2.43;;
7659;SDS011;3872;47.902;8.162;2023-08-30T01:37:10;4.37;;;2.10;;
7659;SDS011;3872;47.902;8.162;2023-08-30T01:39:39;5.00;;;2.30;;
7659;SDS011;3872;47.902;8.162;2023-08-30T01:42:07;4.20;;;2.00;;
7659;SDS011;3872;47.902;8.162;2023-08-30T01:44:36;4.53;;;2.33;;
7659;SDS011;3872;47.902;8.162;2023-08-30T01:47:04;5.63;;;1.83;;
7659;SDS011;3872;47.902;8.162;2023-08-30T01:49:33;5.00;;;2.27;;
7659;SDS011;3872;47.902;8.162;2023-08-30T01:52:02;4.87;;;2.07;;
7659;SDS011;3872;47.902;8.162;2023-08-30T01:54:29;15.33;;;2.43;;
7659;SDS011;3872;47.902;8.162;2023-08-30T01:56:57;17.93;;;2.83;;
7659;SDS011;3872;47.902;8.162;2023-08-30T01:59:24;4.87;;;2.53;;
7659;SDS011;3872;47.902;8.162;2023-08-30T02:01:52;4.37;;;2.30;;
7659;SDS011;3872;47.902;8.162;2023-08-30T02:04:20;5.33;;;1.90;;
7659;SDS011;3872;47.902;8.162;2023-08-30T02:06:48;4.10;;;1.73;;
7659;SDS011;3872;47.902;8.162;2023-08-30T02:09:21;4.80;;;2.40;;
7659;SDS011;3872;47.902;8.162;2023-08-30T02:11:52;4.50;;;1.90;;
7659;SDS011;3872;47.902;8.162;2023-08-30T02:14:21;4.90;;;1.77;;
7659;SDS011;3872;47.902;8.162;2023-08-30T02:16:50;4.10;;;2.00;;
7659;SDS011;3872;47.902;8.162;2023-08-30T02:19:21;4.53;;;1.83;;
7659;SDS011;3872;47.902;8.162;2023-08-30T02:21:48;4.07;;;1.73;;
7659;SDS011;3872;47.902;8.162;2023-08-30T02:24:17;4.23;;;1.60;;
7659;SDS011;3872;47.902;8.162;2023-08-30T02:26:43;4.23;;;2.13;;
7659;SDS011;3872;47.902;8.162;2023-08-30T02:29:11;4.07;;;1.90;;
7659;SDS011;3872;47.902;8.162;2023-08-30T02:31:38;4.37;;;1.77;;
7659;SDS011;3872;47.902;8.162;2023-08-30T02:34:06;3.97;;;2.17;;
7659;SDS011;3872;47.902;8.162;2023-08-30T02:36:33;4.77;;;2.30;;
7659;SDS011;3872;47.902;8.162;2023-08-30T02:38:59;5.60;;;2.07;;
7659;SDS011;3872;47.902;8.162;2023-08-30T02:41:26;4.33;;;2.00;;
7659;SDS011;3872;47.902;8.162;2023-08-30T02:43:52;4.30;;;2.17;;
7659;SDS011;3872;47.902;8.162;2023-08-30T02:46:19;4.87;;;2.47;;
7659;SDS011;3872;47.902;8.162;2023-08-30T02:48:45;5.10;;;2.90;;
7659;SDS011;3872;47.902;8.162;2023-08-30T02:51:13;5.63;;;2.90;;
7659;SDS011;3872;47.902;8.162;2023-08-30T02:53:39;4.70;;;2.70;;
7659;SDS011;3872;47.902;8.162;2023-08-30T02:56:06;5.80;;;3.20;;
7659;SDS011;3872;47.902;8.162;2023-08-30T02:58:33;4.80;;;2.37;;
7659;SDS011;3872;47.902;8.162;2023-08-30T03:00:59;5.50;;;3.20;;
7659;SDS011;3872;47.902;8.162;2023-08-30T03:03:28;4.60;;;2.80;;
7659;SDS011;3872;47.902;8.162;2023-08-30T03:05:54;38.37;;;4.50;;
7659;SDS011;3872;47.902;8.162;2023-08-30T03:08:23;6.47;;;3.20;;
7659;SDS011;3872;47.902;8.162;2023-08-30T03:10:50;13.33;;;4.10;;
7659;SDS011;3872;47.902;8.162;2023-08-30T03:13:17;7.27;;;3.17;;
7659;SDS011;3872;47.902;8.162;2023-08-30T03:15:44;5.60;;;3.10;;
7659;SDS011;3872;47.902;8.162;2023-08-30T03:18:10;6.90;;;3.60;;
7659;SDS011;3872;47.902;8.162;2023-08-30T03:20:37;4.90;;;2.70;;
7659;SDS011;3872;47.902;8.162;2023-08-30T03:23:03;5.23;;;2.90;;
7659;SDS011;3872;47.902;8.162;2023-08-30T03:25:33;6.37;;;3.20;;
7659;SDS011;3872;47.902;8.162;2023-08-30T03:28:00;4.60;;;3.00;;
7659;SDS011;3872;47.902;8.162;2023-08-30T03:30:26;5.83;;;3.27;;
7659;SDS011;3872;47.902;8.162;2023-08-30T03:32:53;5.60;;;3.20;;
7659;SDS011;3872;47.902;8.162;2023-08-30T03:35:20;7.30;;;2.57;;
7659;SDS011;3872;47.902;8.162;2023-08-30T03:37:46;6.00;;;3.60;;
7659;SDS011;3872;47.902;8.162;2023-08-30T03:40:13;6.40;;;3.23;;
7659;SDS011;3872;47.902;8.162;2023-08-30T03:42:43;5.40;;;3.40;;
7659;SDS011;3872;47.902;8.162;2023-08-30T03:45:09;5.10;;;3.37;;
7659;SDS011;3872;47.902;8.162;2023-08-30T03:47:36;9.60;;;3.13;;
7659;SDS011;3872;47.902;8.162;2023-08-30T03:50:04;5.40;;;3.20;;
7659;SDS011;3872;47.902;8.162;2023-08-30T03:52:33;5.93;;;3.27;;
7659;SDS011;3872;47.902;8.162;2023-08-30T03:55:00;5.70;;;3.37;;
7659;SDS011;3872;47.902;8.162;2023-08-30T03:57:27;6.23;;;3.27;;
7659;SDS011;3872;47.902;8.162;2023-08-30T03:59:55;7.70;;;2.90;;
7659;SDS011;3872;47.902;8.162;2023-08-30T04:02:22;7.83;;;3.50;;
7659;SDS011;3872;47.902;8.162;2023-08-30T04:04:49;8.30;;;4.00;;
7659;SDS011;3872;47.902;8.162;2023-08-30T04:07:15;6.03;;;3.10;;
7659;SDS011;3872;47.902;8.162;2023-08-30T04:09:42;5.00;;;2.90;;
7659;SDS011;3872;47.902;8.162;2023-08-30T04:12:09;8.20;;;3.10;;
7659;SDS011;3872;47.902;8.162;2023-08-30T04:14:35;6.57;;;3.63;;
7659;SDS011;3872;47.902;8.162;2023-08-30T04:17:03;6.33;;;3.00;;
7659;SDS011;3872;47.902;8.162;2023-08-30T04:19:30;8.40;;;2.97;;
7659;SDS011;3872;47.902;8.162;2023-08-30T04:21:56;4.60;;;2.80;;
7659;SDS011;3872;47.902;8.162;2023-08-30T04:24:23;5.07;;;2.73;;
7659;SDS011;3872;47.902;8.162;2023-08-30T04:26:49;4.83;;;2.70;;
7659;SDS011;3872;47.902;8.162;2023-08-30T04:29:18;5.17;;;2.93;;
7659;SDS011;3872;47.902;8.162;2023-08-30T04:31:44;4.93;;;2.57;;
7659;SDS011;3872;47.902;8.162;2023-08-30T04:34:12;6.73;;;3.30;;
7659;SDS011;3872;47.902;8.162;2023-08-30T04:36:40;6.03;;;3.50;;
7659;SDS011;3872;47.902;8.162;2023-08-30T04:39:08;19.33;;;4.20;;
7659;SDS011;3872;47.902;8.162;2023-08-30T04:41:36;14.90;;;3.43;;
7659;SDS011;3872;47.902;8.162;2023-08-30T04:44:03;44.60;;;4.70;;
7659;SDS011;3872;47.902;8.162;2023-08-30T04:46:30;47.60;;;4.67;;
7659;SDS011;3872;47.902;8.162;2023-08-30T04:48:56;33.73;;;3.70;;
7659;SDS011;3872;47.902;8.162;2023-08-30T04:51:24;73.90;;;4.90;;
7659;SDS011;3872;47.902;8.162;2023-08-30T04:53:51;68.17;;;5.07;;
7659;SDS011;3872;47.902;8.162;2023-08-30T04:56:18;12.30;;;3.73;;
7659;SDS011;3872;47.902;8.162;2023-08-30T04:58:45;10.23;;;4.10;;
7659;SDS011;3872;47.902;8.162;2023-08-30T05:01:11;44.40;;;4.07;;
7659;SDS011;3872;47.902;8.162;2023-08-30T05:03:39;14.37;;;3.53;;
7659;SDS011;3872;47.902;8.162;2023-08-30T05:06:09;25.53;;;3.37;;
7659;SDS011;3872;47.902;8.162;2023-08-30T05:08:39;46.10;;;4.70;;
7659;SDS011;3872;47.902;8.162;2023-08-30T05:11:06;34.30;;;4.87;;
7659;SDS011;3872;47.902;8.162;2023-08-30T05:13:34;27.47;;;4.30;;
7659;SDS011;3872;47.902;8.162;2023-08-30T05:16:05;8.90;;;3.27;;
7659;SDS011;3872;47.902;8.162;2023-08-30T05:18:31;48.43;;;6.53;;
7659;SDS011;3872;47.902;8.162;2023-08-30T05:21:00;12.33;;;3.60;;
7659;SDS011;3872;47.902;8.162;2023-08-30T05:23:29;28.17;;;4.03;;
7659;SDS011;3872;47.902;8.162;2023-08-30T05:25:57;22.17;;;3.60;;
7659;SDS011;3872;47.902;8.162;2023-08-30T05:28:24;30.67;;;3.80;;
7659;SDS011;3872;47.902;8.162;2023-08-30T05:30:50;14.60;;;3.77;;
7659;SDS011;3872;47.902;8.162;2023-08-30T05:33:49;16.43;;;3.10;;
7659;SDS011;3872;47.902;8.162;2023-08-30T05:36:42;18.07;;;3.87;;
7659;SDS011;3872;47.902;8.162;2023-08-30T05:39:19;4.60;;;2.77;;
7659;SDS011;3872;47.902;8.162;2023-08-30T05:41:51;9.80;;;2.90;;
7659;SDS011;3872;47.902;8.162;2023-08-30T05:44:17;8.00;;;3.37;;
7659;SDS011;3872;47.902;8.162;2023-08-30T05:46:44;30.70;;;4.50;;
7659;SDS011;3872;47.902;8.162;2023-08-30T05:49:10;6.57;;;3.60;;
7659;SDS011;3872;47.902;8.162;2023-08-30T05:51:37;26.77;;;4.17;;
7659;SDS011;3872;47.902;8.162;2023-08-30T05:54:04;26.17;;;3.60;;
7659;SDS011;3872;47.902;8.162;2023-08-30T05:56:30;12.13;;;3.57;;
7659;SDS011;3872;47.902;8.162;2023-08-30T05:59:00;22.67;;;4.00;;
7659;SDS011;3872;47.902;8.162;2023-08-30T06:01:26;20.67;;;3.57;;
7659;SDS011;3872;47.902;8.162;2023-08-30T06:03:53;13.40;;;3.57;;
7659;SDS011;3872;47.902;8.162;2023-08-30T06:06:19;5.67;;;3.07;;
7659;SDS011;3872;47.902;8.162;2023-08-30T06:08:46;5.17;;;3.00;;
7659;SDS011;3872;47.902;8.162;2023-08-30T06:11:12;6.03;;;3.30;;
7659;SDS011;3872;47.902;8.162;2023-08-30T06:13:40;7.57;;;2.97;;
7659;SDS011;3872;47.902;8.162;2023-08-30T06:16:08;11.77;;;3.10;;
7659;SDS011;3872;47.902;8.162;2023-08-30T06:18:34;5.00;;;3.10;;
7659;SDS011;3872;47.902;8.162;2023-08-30T06:21:02;5.27;;;3.00;;
7659;SDS011;3872;47.902;8.162;2023-08-30T06:23:29;4.50;;;3.03;;
7659;SDS011;3872;47.902;8.162;2023-08-30T06:25:56;8.00;;;4.10;;
7659;SDS011;3872;47.902;8.162;2023-08-30T06:28:24;7.97;;;2.77;;
7659;SDS011;3872;47.902;8.162;2023-08-30T06:30:50;5.90;;;3.43;;
7659;SDS011;3872;47.902;8.162;2023-08-30T06:33:18;5.40;;;3.13;;
7659;SDS011;3872;47.902;8.162;2023-08-30T06:35:47;4.57;;;2.70;;
7659;SDS011;3872;47.902;8.162;2023-08-30T06:38:14;4.57;;;2.87;;
7659;SDS011;3872;47.902;8.162;2023-08-30T06:40:42;4.40;;;2.60;;
7659;SDS011;3872;47.902;8.162;2023-08-30T06:43:10;5.10;;;3.13;;
7659;SDS011;3872;47.902;8.162;2023-08-30T06:45:37;5.10;;;2.83;;
7659;SDS011;3872;47.902;8.162;2023-08-30T06:48:03;5.10;;;3.00;;
7659;SDS011;3872;47.902;8.162;2023-08-30T06:50:32;4.30;;;2.30;;
7659;SDS011;3872;47.902;8.162;2023-08-30T06:52:59;4.63;;;2.40;;
7659;SDS011;3872;47.902;8.162;2023-08-30T06:55:25;6.17;;;2.87;;
7659;SDS011;3872;47.902;8.162;2023-08-30T06:57:52;4.80;;;2.10;;
7659;SDS011;3872;47.902;8.162;2023-08-30T07:00:18;5.13;;;2.73;;
7659;SDS011;3872;47.902;8.162;2023-08-30T07:02:45;4.37;;;2.30;;
7659;SDS011;3872;47.902;8.162;2023-08-30T07:05:12;6.10;;;2.63;;
7659;SDS011;3872;47.902;8.162;2023-08-30T07:07:40;5.50;;;2.90;;
7659;SDS011;3872;47.902;8.162;2023-08-30T07:10:06;4.73;;;2.70;;
7659;SDS011;3872;47.902;8.162;2023-08-30T07:12:34;4.30;;;2.37;;
7659;SDS011;3872;47.902;8.162;2023-08-30T07:15:00;6.30;;;2.90;;
7659;SDS011;3872;47.902;8.162;2023-08-30T07:17:29;4.63;;;2.63;;
7659;SDS011;3872;47.902;8.162;2023-08-30T07:19:55;5.30;;;2.80;;
7659;SDS011;3872;47.902;8.162;2023-08-30T07:22:22;5.20;;;3.37;;
7659;SDS011;3872;47.902;8.162;2023-08-30T07:24:50;4.90;;;2.63;;
7659;SDS011;3872;47.902;8.162;2023-08-30T07:27:16;4.90;;;2.40;;
7659;SDS011;3872;47.902;8.162;2023-08-30T07:29:43;8.47;;;2.60;;
7659;SDS011;3872;47.902;8.162;2023-08-30T07:32:09;5.37;;;2.50;;
7659;SDS011;3872;47.902;8.162;2023-08-30T07:34:36;4.57;;;2.77;;
7659;SDS011;3872;47.902;8.162;2023-08-30T07:37:02;5.00;;;2.40;;
7659;SDS011;3872;47.902;8.162;2023-08-30T07:39:29;6.00;;;2.70;;
7659;SDS011;3872;47.902;8.162;2023-08-30T07:41:57;5.23;;;2.53;;
7659;SDS011;3872;47.902;8.162;2023-08-30T07:44:23;4.30;;;2.50;;
7659;SDS011;3872;47.902;8.162;2023-08-30T07:46:50;4.30;;;1.90;;
7659;SDS011;3872;47.902;8.162;2023-08-30T07:49:18;4.93;;;2.10;;
7659;SDS011;3872;47.902;8.162;2023-08-30T07:51:44;4.97;;;2.00;;
7659;SDS011;3872;47.902;8.162;2023-08-30T07:54:11;4.03;;;2.03;;
7659;SDS011;3872;47.902;8.162;2023-08-30T07:56:38;4.93;;;2.27;;
7659;SDS011;3872;47.902;8.162;2023-08-30T07:59:06;4.10;;;2.10;;
7659;SDS011;3872;47.902;8.162;2023-08-30T08:01:32;4.77;;;1.77;;
7659;SDS011;3872;47.902;8.162;2023-08-30T08:03:59;4.90;;;2.30;;
7659;SDS011;3872;47.902;8.162;2023-08-30T08:06:25;4.00;;;1.70;;
7659;SDS011;3872;47.902;8.162;2023-08-30T08:08:52;4.50;;;1.80;;
7659;SDS011;3872;47.902;8.162;2023-08-30T08:11:18;4.40;;;2.00;;
7659;SDS011;3872;47.902;8.162;2023-08-30T08:13:45;3.80;;;1.70;;
7659;SDS011;3872;47.902;8.162;2023-08-30T08:16:13;4.50;;;2.17;;
7659;SDS011;3872;47.902;8.162;2023-08-30T08:18:39;4.80;;;1.97;;
7659;SDS011;3872;47.902;8.162;2023-08-30T08:21:06;5.27;;;1.90;;
7659;SDS011;3872;47.902;8.162;2023-08-30T08:23:32;5.00;;;1.60;;
7659;SDS011;3872;47.902;8.162;2023-08-30T08:25:59;5.87;;;2.10;;
7659;SDS011;3872;47.902;8.162;2023-08-30T08:28:27;4.47;;;2.03;;
7659;SDS011;3872;47.902;8.162;2023-08-30T08:30:54;4.80;;;2.20;;
7659;SDS011;3872;47.902;8.162;2023-08-30T08:33:22;4.27;;;2.07;;
7659;SDS011;3872;47.902;8.162;2023-08-30T08:35:49;4.90;;;2.00;;
7659;SDS011;3872;47.902;8.162;2023-08-30T08:38:16;4.40;;;2.33;;
7659;SDS011;3872;47.902;8.162;2023-08-30T08:40:42;4.73;;;2.53;;
7659;SDS011;3872;47.902;8.162;2023-08-30T08:43:09;4.80;;;2.00;;
7659;SDS011;3872;47.902;8.162;2023-08-30T08:45:37;4.47;;;2.20;;
7659;SDS011;3872;47.902;8.162;2023-08-30T08:48:04;4.57;;;2.23;;
7659;SDS011;3872;47.902;8.162;2023-08-30T08:50:33;4.53;;;2.10;;
7659;SDS011;3872;47.902;8.162;2023-08-30T08:53:00;4.30;;;1.90;;
7659;SDS011;3872;47.902;8.162;2023-08-30T08:55:28;4.70;;;1.90;;
7659;SDS011;3872;47.902;8.162;2023-08-30T08:57:56;4.40;;;1.97;;
7659;SDS011;3872;47.902;8.162;2023-08-30T09:00:24;13.63;;;1.90;;
7659;SDS011;3872;47.902;8.162;2023-08-30T09:02:50;4.10;;;1.90;;
7659;SDS011;3872;47.902;8.162;2023-08-30T09:05:19;4.70;;;1.93;;
7659;SDS011;3872;47.902;8.162;2023-08-30T09:07:47;4.17;;;1.80;;
7659;SDS011;3872;47.902;8.162;2023-08-30T09:10:18;4.60;;;1.50;;
7659;SDS011;3872;47.902;8.162;2023-08-30T09:12:45;5.43;;;1.83;;
7659;SDS011;3872;47.902;8.162;2023-08-30T09:15:12;4.20;;;1.63;;
7659;SDS011;3872;47.902;8.162;2023-08-30T09:17:40;4.10;;;1.70;;
7659;SDS011;3872;47.902;8.162;2023-08-30T09:20:08;4.83;;;1.30;;
7659;SDS011;3872;47.902;8.162;2023-08-30T09:22:35;5.70;;;1.77;;
7659;SDS011;3872;47.902;8.162;2023-08-30T09:25:04;4.20;;;1.53;;
7659;SDS011;3872;47.902;8.162;2023-08-30T09:27:32;6.00;;;1.50;;
7659;SDS011;3872;47.902;8.162;2023-08-30T09:29:59;4.83;;;1.80;;
7659;SDS011;3872;47.902;8.162;2023-08-30T09:32:26;4.53;;;1.43;;
7659;SDS011;3872;47.902;8.162;2023-08-30T09:34:52;5.00;;;1.80;;
7659;SDS011;3872;47.902;8.162;2023-08-30T09:37:19;4.33;;;1.60;;
7659;SDS011;3872;47.902;8.162;2023-08-30T09:39:48;5.20;;;1.80;;
7659;SDS011;3872;47.902;8.162;2023-08-30T09:42:17;5.60;;;1.70;;
7659;SDS011;3872;47.902;8.162;2023-08-30T09:44:43;4.20;;;1.70;;
7659;SDS011;3872;47.902;8.162;2023-08-30T09:47:10;4.50;;;1.80;;
7659;SDS011;3872;47.902;8.162;2023-08-30T09:49:41;4.60;;;1.80;;
7659;SDS011;3872;47.902;8.162;2023-08-30T09:52:09;5.70;;;1.40;;
7659;SDS011;3872;47.902;8.162;2023-08-30T09:54:36;4.17;;;1.50;;
7659;SDS011;3872;47.902;8.162;2023-08-30T09:57:06;4.40;;;1.70;;
7659;SDS011;3872;47.902;8.162;2023-08-30T09:59:34;4.30;;;1.37;;
7659;SDS011;3872;47.902;8.162;2023-08-30T10:02:03;5.57;;;1.97;;
7659;SDS011;3872;47.902;8.162;2023-08-30T10:04:30;4.50;;;1.57;;
7659;SDS011;3872;47.902;8.162;2023-08-30T10:06:58;4.17;;;1.30;;
7659;SDS011;3872;47.902;8.162;2023-08-30T10:09:25;4.30;;;1.53;;
7659;SDS011;3872;47.902;8.162;2023-08-30T10:11:51;4.33;;;1.53;;
7659;SDS011;3872;47.902;8.162;2023-08-30T10:14:19;4.50;;;1.73;;
7659;SDS011;3872;47.902;8.162;2023-08-30T10:16:47;4.30;;;1.60;;
7659;SDS011;3872;47.902;8.162;2023-08-30T10:19:15;6.47;;;1.90;;
7659;SDS011;3872;47.902;8.162;2023-08-30T10:21:43;4.67;;;2.30;;
7659;SDS011;3872;47.902;8.162;2023-08-30T10:24:10;5.50;;;2.90;;
7659;SDS011;3872;47.902;8.162;2023-08-30T10:26:38;6.50;;;3.10;;
7659;SDS011;3872;47.902;8.162;2023-08-30T10:29:07;6.30;;;3.47;;
7659;SDS011;3872;47.902;8.162;2023-08-30T10:31:37;6.10;;;3.27;;
7659;SDS011;3872;47.902;8.162;2023-08-30T10:34:11;9.53;;;3.60;;
7659;SDS011;3872;47.902;8.162;2023-08-30T10:36:39;6.20;;;3.30;;
7659;SDS011;3872;47.902;8.162;2023-08-30T10:39:10;18.10;;;3.27;;
7659;SDS011;3872;47.902;8.162;2023-08-30T10:41:53;7.57;;;3.73;;
7659;SDS011;3872;47.902;8.162;2023-08-30T10:44:20;7.13;;;3.00;;
7659;SDS011;3872;47.902;8.162;2023-08-30T10:46:51;5.37;;;3.20;;
7659;SDS011;3872;47.902;8.162;2023-08-30T10:49:20;5.20;;;2.77;;
7659;SDS011;3872;47.902;8.162;2023-08-30T10:51:54;7.53;;;3.33;;
7659;SDS011;3872;47.902;8.162;2023-08-30T10:54:22;5.73;;;2.83;;
7659;SDS011;3872;47.902;8.162;2023-08-30T10:56:54;5.53;;;2.87;;
7659;SDS011;3872;47.902;8.162;2023-08-30T10:59:22;6.10;;;2.90;;
7659;SDS011;3872;47.902;8.162;2023-08-30T11:01:50;7.73;;;2.97;;
7659;SDS011;3872;47.902;8.162;2023-08-30T11:04:19;7.80;;;4.27;;
7659;SDS011;3872;47.902;8.162;2023-08-30T11:06:48;5.33;;;3.50;;
7659;SDS011;3872;47.902;8.162;2023-08-30T11:09:16;6.47;;;3.70;;
7659;SDS011;3872;47.902;8.162;2023-08-30T11:11:44;6.73;;;4.10;;
7659;SDS011;3872;47.902;8.162;2023-08-30T11:14:11;6.27;;;3.70;;
7659;SDS011;3872;47.902;8.162;2023-08-30T11:16:38;7.10;;;3.80;;
7659;SDS011;3872;47.902;8.162;2023-08-30T11:19:06;5.53;;;3.60;;
7659;SDS011;3872;47.902;8.162;2023-08-30T11:21:36;6.27;;;3.93;;
7659;SDS011;3872;47.902;8.162;2023-08-30T11:24:03;6.53;;;4.13;;
7659;SDS011;3872;47.902;8.162;2023-08-30T11:26:30;7.60;;;4.47;;
7659;SDS011;3872;47.902;8.162;2023-08-30T11:28:57;8.70;;;5.13;;
7659;SDS011;3872;47.902;8.162;2023-08-30T11:31:24;6.80;;;4.53;;
7659;SDS011;3872;47.902;8.162;2023-08-30T11:33:52;6.80;;;4.30;;
7659;SDS011;3872;47.902;8.162;2023-08-30T11:36:21;8.23;;;4.90;;
7659;SDS011;3872;47.902;8.162;2023-08-30T11:38:49;6.37;;;4.00;;
7659;SDS011;3872;47.902;8.162;2023-08-30T11:41:16;6.63;;;4.33;;
7659;SDS011;3872;47.902;8.162;2023-08-30T11:43:43;7.23;;;4.30;;
7659;SDS011;3872;47.902;8.162;2023-08-30T11:46:10;6.60;;;3.80;;
7659;SDS011;3872;47.902;8.162;2023-08-30T11:48:38;5.97;;;3.63;;
7659;SDS011;3872;47.902;8.162;2023-08-30T11:51:06;6.20;;;3.40;;
7659;SDS011;3872;47.902;8.162;2023-08-30T11:53:33;5.77;;;2.80;;
7659;SDS011;3872;47.902;8.162;2023-08-30T11:56:01;4.63;;;2.83;;
7659;SDS011;3872;47.902;8.162;2023-08-30T11:58:31;5.10;;;2.40;;
7659;SDS011;3872;47.902;8.162;2023-08-30T12:00:58;6.80;;;2.50;;
7659;SDS011;3872;47.902;8.162;2023-08-30T12:03:25;4.93;;;2.27;;
7659;SDS011;3872;47.902;8.162;2023-08-30T12:05:53;4.63;;;1.87;;
7659;SDS011;3872;47.902;8.162;2023-08-30T12:08:20;4.20;;;2.10;;
7659;SDS011;3872;47.902;8.162;2023-08-30T12:10:47;4.57;;;1.90;;
7659;SDS011;3872;47.902;8.162;2023-08-30T12:13:24;4.10;;;1.80;;
7659;SDS011;3872;47.902;8.162;2023-08-30T12:15:52;4.37;;;2.00;;
7659;SDS011;3872;47.902;8.162;2023-08-30T12:18:20;5.23;;;2.70;;
7659;SDS011;3872;47.902;8.162;2023-08-30T12:20:51;4.83;;;2.30;;
7659;SDS011;3872;47.902;8.162;2023-08-30T12:23:19;4.80;;;2.20;;
7659;SDS011;3872;47.902;8.162;2023-08-30T12:25:56;4.83;;;2.10;;
7659;SDS011;3872;47.902;8.162;2023-08-30T12:28:24;6.60;;;2.10;;
7659;SDS011;3872;47.902;8.162;2023-08-30T12:30:51;5.23;;;2.10;;
7659;SDS011;3872;47.902;8.162;2023-08-30T12:33:18;4.67;;;1.97;;
7659;SDS011;3872;47.902;8.162;2023-08-30T12:35:44;4.60;;;1.90;;
7659;SDS011;3872;47.902;8.162;2023-08-30T12:38:11;4.70;;;2.10;;
7659;SDS011;3872;47.902;8.162;2023-08-30T12:40:42;7.80;;;3.00;;
7659;SDS011;3872;47.902;8.162;2023-08-30T12:43:09;5.40;;;2.40;;
7659;SDS011;3872;47.902;8.162;2023-08-30T12:45:38;6.70;;;3.03;;
7659;SDS011;3872;47.902;8.162;2023-08-30T12:48:06;4.83;;;2.40;;
7659;SDS011;3872;47.902;8.162;2023-08-30T12:50:33;4.90;;;2.47;;
7659;SDS011;3872;47.902;8.162;2023-08-30T12:53:00;7.10;;;3.20;;
7659;SDS011;3872;47.902;8.162;2023-08-30T12:55:27;6.10;;;2.47;;
7659;SDS011;3872;47.902;8.162;2023-08-30T12:57:54;5.60;;;2.70;;
7659;SDS011;3872;47.902;8.162;2023-08-30T13:00:20;4.87;;;2.60;;
7659;SDS011;3872;47.902;8.162;2023-08-30T13:02:48;7.60;;;2.90;;
7659;SDS011;3872;47.902;8.162;2023-08-30T13:05:15;6.27;;;3.00;;
7659;SDS011;3872;47.902;8.162;2023-08-30T13:07:42;5.63;;;2.80;;
7659;SDS011;3872;47.902;8.162;2023-08-30T13:10:09;5.10;;;2.40;;
7659;SDS011;3872;47.902;8.162;2023-08-30T13:12:36;5.33;;;2.87;;
7659;SDS011;3872;47.902;8.162;2023-08-30T13:15:03;6.50;;;2.97;;
7659;SDS011;3872;47.902;8.162;2023-08-30T13:17:30;5.33;;;2.73;;
7659;SDS011;3872;47.902;8.162;2023-08-30T13:19:58;5.00;;;2.37;;
7659;SDS011;3872;47.902;8.162;2023-08-30T13:22:25;8.70;;;2.30;;
7659;SDS011;3872;47.902;8.162;2023-08-30T13:24:52;5.53;;;2.60;;
7659;SDS011;3872;47.902;8.162;2023-08-30T13:27:18;5.80;;;2.27;;
7659;SDS011;3872;47.902;8.162;2023-08-30T13:29:45;4.30;;;2.00;;
7659;SDS011;3872;47.902;8.162;2023-08-30T13:32:13;4.60;;;2.07;;
7659;SDS011;3872;47.902;8.162;2023-08-30T13:34:39;5.47;;;2.40;;
7659;SDS011;3872;47.902;8.162;2023-08-30T13:37:10;4.80;;;2.00;;
7659;SDS011;3872;47.902;8.162;2023-08-30T13:39:36;5.13;;;2.13;;
7659;SDS011;3872;47.902;8.162;2023-08-30T13:42:03;4.77;;;2.10;;
7659;SDS011;3872;47.902;8.162;2023-08-30T13:44:30;8.10;;;2.20;;
7659;SDS011;3872;47.902;8.162;2023-08-30T13:46:57;4.43;;;2.00;;
7659;SDS011;3872;47.902;8.162;2023-08-30T13:49:24;6.70;;;2.30;;
7659;SDS011;3872;47.902;8.162;2023-08-30T13:51:50;4.90;;;2.67;;
7659;SDS011;3872;47.902;8.162;2023-08-30T13:54:20;5.27;;;2.63;;
7659;SDS011;3872;47.902;8.162;2023-08-30T13:56:46;5.27;;;2.17;;
7659;SDS011;3872;47.902;8.162;2023-08-30T13:59:13;6.40;;;1.93;;
7659;SDS011;3872;47.902;8.162;2023-08-30T14:01:39;7.20;;;2.20;;
7659;SDS011;3872;47.902;8.162;2023-08-30T14:04:06;5.70;;;2.33;;
7659;SDS011;3872;47.902;8.162;2023-08-30T14:06:32;4.63;;;2.03;;
7659;SDS011;3872;47.902;8.162;2023-08-30T14:08:59;5.27;;;2.03;;
7659;SDS011;3872;47.902;8.162;2023-08-30T14:11:27;4.60;;;1.87;;
7659;SDS011;3872;47.902;8.162;2023-08-30T14:13:53;7.33;;;2.10;;
7659;SDS011;3872;47.902;8.162;2023-08-30T14:16:20;5.00;;;2.00;;
7659;SDS011;3872;47.902;8.162;2023-08-30T14:18:46;4.50;;;1.93;;
7659;SDS011;3872;47.902;8.162;2023-08-30T14:21:13;7.13;;;2.53;;
7659;SDS011;3872;47.902;8.162;2023-08-30T14:23:39;5.90;;;2.50;;
7659;SDS011;3872;47.902;8.162;2023-08-30T14:26:06;5.77;;;2.50;;
7659;SDS011;3872;47.902;8.162;2023-08-30T14:28:36;8.63;;;2.00;;
7659;SDS011;3872;47.902;8.162;2023-08-30T14:31:03;4.20;;;1.90;;
7659;SDS011;3872;47.902;8.162;2023-08-30T14:33:33;4.50;;;2.00;;
7659;SDS011;3872;47.902;8.162;2023-08-30T14:35:59;6.50;;;1.70;;
7659;SDS011;3872;47.902;8.162;2023-08-30T14:38:26;4.73;;;1.80;;
7659;SDS011;3872;47.902;8.162;2023-08-30T14:40:56;4.30;;;2.00;;
7659;SDS011;3872;47.902;8.162;2023-08-30T14:43:23;4.93;;;1.77;;
7659;SDS011;3872;47.902;8.162;2023-08-30T14:45:51;4.20;;;1.57;;
7659;SDS011;3872;47.902;8.162;2023-08-30T14:48:25;5.13;;;1.90;;
7659;SDS011;3872;47.902;8.162;2023-08-30T14:50:51;4.40;;;1.90;;
7659;SDS011;3872;47.902;8.162;2023-08-30T14:53:18;4.67;;;2.07;;
7659;SDS011;3872;47.902;8.162;2023-08-30T14:55:44;4.00;;;1.60;;
7659;SDS011;3872;47.902;8.162;2023-08-30T14:58:11;4.10;;;1.50;;
7659;SDS011;3872;47.902;8.162;2023-08-30T15:00:38;4.30;;;1.40;;
7659;SDS011;3872;47.902;8.162;2023-08-30T15:03:06;5.90;;;1.47;;
7659;SDS011;3872;47.902;8.162;2023-08-30T15:05:33;4.10;;;1.40;;
7659;SDS011;3872;47.902;8.162;2023-08-30T15:08:00;5.00;;;1.50;;
7659;SDS011;3872;47.902;8.162;2023-08-30T15:10:27;4.57;;;1.87;;
7659;SDS011;3872;47.902;8.162;2023-08-30T15:12:54;4.33;;;1.57;;
7659;SDS011;3872;47.902;8.162;2023-08-30T15:15:20;5.47;;;1.80;;
7659;SDS011;3872;47.902;8.162;2023-08-30T15:17:47;9.50;;;1.90;;